Main page
METAR-TAF:

METAR-TAF

Airports :

Sandnessjøen Airport. Stokka

Sandnessjøen, Norway

latitude: 65-58N, longitude: 012-28E, elevation: 1 m

Current weather observation

The report was made 1 hour and 52 minutes ago, at 19:50 UTC
Wind 17 kt from the South
Temperature 6°C
Humidity 65%
Pressure 965 hPa
Visibility 10 km or more
Few clouds at a height of 3400 ft
Broken clouds at a height of 4200 ft
rain showers

METAR: ENST 171950Z 18017KT 9999 SHRA FEW034 BKN042 06/M00 Q0965 RMK WIND 300FT 18020KT

Time: 22:42 (21:42 UTC)


TAF: missing

Weather observations and forecasts of more than 4000 airports (METAR and TAF reports).

The available stations are represented by yellow and red dots on the map.

Hover mouse over dot to see the name of the station.

Then click to see weather observations and forecasts.

To change the map : click on the green buttons with a black cross to zoom in, on the green button with a dash to zoom out, or on the green arrows for adjacent maps.


METAR-TAF: